sensor_id;sensor_type;location;lat;lon;timestamp;P1;durP1;ratioP1;P2;durP2;ratioP2
63394;SDS011;49531;-34.520;150.798;2024-01-25T00:01:44;10.77;;;3.00;;
63394;SDS011;49531;-34.520;150.798;2024-01-25T00:04:12;12.98;;;3.28;;
63394;SDS011;49531;-34.520;150.798;2024-01-25T00:06:39;12.43;;;3.30;;
63394;SDS011;49531;-34.520;150.798;2024-01-25T00:09:06;9.43;;;2.88;;
63394;SDS011;49531;-34.520;150.798;2024-01-25T00:11:34;13.65;;;3.22;;
63394;SDS011;49531;-34.520;150.798;2024-01-25T00:14:01;10.32;;;3.08;;
63394;SDS011;49531;-34.520;150.798;2024-01-25T00:16:28;14.95;;;3.60;;
63394;SDS011;49531;-34.520;150.798;2024-01-25T00:18:55;9.50;;;3.10;;
63394;SDS011;49531;-34.520;150.798;2024-01-25T00:21:25;9.70;;;3.10;;
63394;SDS011;49531;-34.520;150.798;2024-01-25T00:23:52;10.88;;;3.00;;
63394;SDS011;49531;-34.520;150.798;2024-01-25T00:26:19;11.10;;;3.13;;
63394;SDS011;49531;-34.520;150.798;2024-01-25T00:28:47;9.15;;;2.92;;
63394;SDS011;49531;-34.520;150.798;2024-01-25T00:31:14;15.00;;;3.25;;
63394;SDS011;49531;-34.520;150.798;2024-01-25T00:33:41;12.05;;;3.47;;
63394;SDS011;49531;-34.520;150.798;2024-01-25T00:36:08;9.60;;;3.22;;
63394;SDS011;49531;-34.520;150.798;2024-01-25T00:38:36;9.77;;;3.20;;
63394;SDS011;49531;-34.520;150.798;2024-01-25T00:41:03;9.63;;;2.63;;
63394;SDS011;49531;-34.520;150.798;2024-01-25T00:43:34;11.38;;;2.78;;
63394;SDS011;49531;-34.520;150.798;2024-01-25T00:46:07;8.02;;;2.88;;
63394;SDS011;49531;-34.520;150.798;2024-01-25T00:49:11;10.45;;;3.42;;
63394;SDS011;49531;-34.520;150.798;2024-01-25T00:51:38;9.38;;;3.00;;
63394;SDS011;49531;-34.520;150.798;2024-01-25T00:54:13;9.85;;;3.10;;
63394;SDS011;49531;-34.520;150.798;2024-01-25T00:56:41;10.73;;;3.08;;
63394;SDS011;49531;-34.520;150.798;2024-01-25T00:59:08;9.02;;;3.15;;
63394;SDS011;49531;-34.520;150.798;2024-01-25T01:01:36;10.15;;;2.88;;
63394;SDS011;49531;-34.520;150.798;2024-01-25T01:04:04;8.50;;;3.08;;
63394;SDS011;49531;-34.520;150.798;2024-01-25T01:06:37;11.55;;;3.20;;
63394;SDS011;49531;-34.520;150.798;2024-01-25T01:09:04;10.25;;;2.90;;
63394;SDS011;49531;-34.520;150.798;2024-01-25T01:11:32;10.90;;;3.13;;
63394;SDS011;49531;-34.520;150.798;2024-01-25T01:13:59;10.70;;;3.25;;
63394;SDS011;49531;-34.520;150.798;2024-01-25T01:16:29;13.98;;;3.50;;
63394;SDS011;49531;-34.520;150.798;2024-01-25T01:18:58;9.57;;;2.93;;
63394;SDS011;49531;-34.520;150.798;2024-01-25T01:21:32;12.88;;;3.33;;
63394;SDS011;49531;-34.520;150.798;2024-01-25T01:24:00;10.90;;;3.22;;
63394;SDS011;49531;-34.520;150.798;2024-01-25T01:26:28;14.95;;;3.30;;
63394;SDS011;49531;-34.520;150.798;2024-01-25T01:28:55;9.98;;;3.10;;
63394;SDS011;49531;-34.520;150.798;2024-01-25T01:31:22;10.57;;;3.15;;
63394;SDS011;49531;-34.520;150.798;2024-01-25T01:33:49;12.00;;;3.25;;
63394;SDS011;49531;-34.520;150.798;2024-01-25T01:36:16;11.48;;;2.90;;
63394;SDS011;49531;-34.520;150.798;2024-01-25T01:38:44;8.73;;;3.00;;
63394;SDS011;49531;-34.520;150.798;2024-01-25T01:41:11;11.60;;;3.22;;
63394;SDS011;49531;-34.520;150.798;2024-01-25T01:43:38;10.75;;;2.80;;
63394;SDS011;49531;-34.520;150.798;2024-01-25T01:48:57;10.20;;;3.00;;
63394;SDS011;49531;-34.520;150.798;2024-01-25T01:51:25;12.50;;;3.17;;
63394;SDS011;49531;-34.520;150.798;2024-01-25T01:53:55;10.82;;;2.90;;
63394;SDS011;49531;-34.520;150.798;2024-01-25T01:56:26;13.68;;;3.17;;
63394;SDS011;49531;-34.520;150.798;2024-01-25T01:58:56;15.02;;;3.03;;
63394;SDS011;49531;-34.520;150.798;2024-01-25T02:01:25;13.15;;;3.05;;
63394;SDS011;49531;-34.520;150.798;2024-01-25T02:03:53;12.25;;;3.10;;
63394;SDS011;49531;-34.520;150.798;2024-01-25T02:06:21;11.85;;;2.95;;
63394;SDS011;49531;-34.520;150.798;2024-01-25T02:08:50;9.95;;;2.90;;
63394;SDS011;49531;-34.520;150.798;2024-01-25T02:11:24;13.20;;;3.30;;
63394;SDS011;49531;-34.520;150.798;2024-01-25T02:13:51;12.25;;;3.20;;
63394;SDS011;49531;-34.520;150.798;2024-01-25T02:16:19;14.68;;;3.35;;
63394;SDS011;49531;-34.520;150.798;2024-01-25T02:18:46;9.40;;;2.85;;
63394;SDS011;49531;-34.520;150.798;2024-01-25T02:21:13;12.98;;;3.00;;
63394;SDS011;49531;-34.520;150.798;2024-01-25T02:23:40;10.38;;;2.92;;
63394;SDS011;49531;-34.520;150.798;2024-01-25T02:26:08;12.93;;;2.90;;
63394;SDS011;49531;-34.520;150.798;2024-01-25T02:28:35;13.20;;;2.97;;
63394;SDS011;49531;-34.520;150.798;2024-01-25T02:31:02;8.50;;;2.92;;
63394;SDS011;49531;-34.520;150.798;2024-01-25T02:33:29;11.73;;;3.33;;
63394;SDS011;49531;-34.520;150.798;2024-01-25T02:35:57;12.48;;;3.30;;
63394;SDS011;49531;-34.520;150.798;2024-01-25T02:38:24;15.25;;;3.15;;
63394;SDS011;49531;-34.520;150.798;2024-01-25T02:40:51;14.52;;;3.40;;
63394;SDS011;49531;-34.520;150.798;2024-01-25T02:43:21;14.07;;;3.45;;
63394;SDS011;49531;-34.520;150.798;2024-01-25T02:45:48;12.00;;;2.95;;
63394;SDS011;49531;-34.520;150.798;2024-01-25T02:48:16;14.73;;;2.92;;
63394;SDS011;49531;-34.520;150.798;2024-01-25T02:50:43;19.20;;;3.63;;
63394;SDS011;49531;-34.520;150.798;2024-01-25T02:53:10;16.63;;;3.38;;
63394;SDS011;49531;-34.520;150.798;2024-01-25T02:55:38;10.90;;;2.88;;
63394;SDS011;49531;-34.520;150.798;2024-01-25T02:58:05;16.80;;;3.38;;
63394;SDS011;49531;-34.520;150.798;2024-01-25T03:00:32;21.20;;;3.70;;
63394;SDS011;49531;-34.520;150.798;2024-01-25T03:03:02;16.05;;;3.05;;
63394;SDS011;49531;-34.520;150.798;2024-01-25T03:05:30;17.98;;;3.60;;
63394;SDS011;49531;-34.520;150.798;2024-01-25T03:07:57;15.07;;;3.30;;
63394;SDS011;49531;-34.520;150.798;2024-01-25T03:10:24;14.70;;;3.25;;
63394;SDS011;49531;-34.520;150.798;2024-01-25T03:12:51;15.00;;;3.33;;
63394;SDS011;49531;-34.520;150.798;2024-01-25T03:15:18;19.98;;;3.63;;
63394;SDS011;49531;-34.520;150.798;2024-01-25T03:17:45;14.73;;;3.05;;
63394;SDS011;49531;-34.520;150.798;2024-01-25T03:20:12;13.32;;;3.03;;
63394;SDS011;49531;-34.520;150.798;2024-01-25T03:22:40;20.02;;;3.53;;
63394;SDS011;49531;-34.520;150.798;2024-01-25T03:25:07;13.35;;;2.92;;
63394;SDS011;49531;-34.520;150.798;2024-01-25T03:27:34;17.38;;;3.63;;
63394;SDS011;49531;-34.520;150.798;2024-01-25T03:30:01;14.50;;;3.50;;
63394;SDS011;49531;-34.520;150.798;2024-01-25T03:32:30;18.73;;;3.38;;
63394;SDS011;49531;-34.520;150.798;2024-01-25T03:34:59;14.70;;;3.20;;
63394;SDS011;49531;-34.520;150.798;2024-01-25T03:37:26;16.90;;;3.30;;
63394;SDS011;49531;-34.520;150.798;2024-01-25T03:39:53;16.30;;;3.45;;
63394;SDS011;49531;-34.520;150.798;2024-01-25T03:42:20;14.85;;;3.10;;
63394;SDS011;49531;-34.520;150.798;2024-01-25T03:44:47;18.40;;;3.50;;
63394;SDS011;49531;-34.520;150.798;2024-01-25T03:47:14;14.57;;;3.00;;
63394;SDS011;49531;-34.520;150.798;2024-01-25T03:49:41;18.48;;;3.45;;
63394;SDS011;49531;-34.520;150.798;2024-01-25T03:52:08;16.90;;;3.00;;
63394;SDS011;49531;-34.520;150.798;2024-01-25T03:54:35;15.73;;;3.40;;
63394;SDS011;49531;-34.520;150.798;2024-01-25T03:57:03;16.10;;;3.40;;
63394;SDS011;49531;-34.520;150.798;2024-01-25T03:59:30;15.07;;;2.92;;
63394;SDS011;49531;-34.520;150.798;2024-01-25T04:01:57;15.57;;;3.40;;
63394;SDS011;49531;-34.520;150.798;2024-01-25T04:04:24;17.88;;;3.50;;
63394;SDS011;49531;-34.520;150.798;2024-01-25T04:06:51;17.10;;;3.03;;
63394;SDS011;49531;-34.520;150.798;2024-01-25T04:09:18;21.15;;;3.80;;
63394;SDS011;49531;-34.520;150.798;2024-01-25T04:11:46;20.83;;;3.35;;
63394;SDS011;49531;-34.520;150.798;2024-01-25T04:14:22;19.98;;;3.50;;
63394;SDS011;49531;-34.520;150.798;2024-01-25T04:16:57;16.95;;;3.38;;
63394;SDS011;49531;-34.520;150.798;2024-01-25T04:19:24;19.88;;;3.42;;
63394;SDS011;49531;-34.520;150.798;2024-01-25T04:21:51;20.00;;;3.63;;
63394;SDS011;49531;-34.520;150.798;2024-01-25T04:24:18;19.13;;;3.38;;
63394;SDS011;49531;-34.520;150.798;2024-01-25T04:26:46;20.15;;;3.60;;
63394;SDS011;49531;-34.520;150.798;2024-01-25T04:29:13;17.50;;;3.38;;
63394;SDS011;49531;-34.520;150.798;2024-01-25T04:31:43;19.30;;;3.60;;
63394;SDS011;49531;-34.520;150.798;2024-01-25T04:34:14;17.65;;;3.25;;
63394;SDS011;49531;-34.520;150.798;2024-01-25T04:36:42;18.42;;;3.63;;
63394;SDS011;49531;-34.520;150.798;2024-01-25T04:39:09;17.83;;;3.47;;
63394;SDS011;49531;-34.520;150.798;2024-01-25T04:41:36;19.17;;;3.20;;
63394;SDS011;49531;-34.520;150.798;2024-01-25T04:44:03;16.67;;;3.17;;
63394;SDS011;49531;-34.520;150.798;2024-01-25T04:46:30;16.23;;;3.50;;
63394;SDS011;49531;-34.520;150.798;2024-01-25T04:49:03;15.93;;;3.22;;
63394;SDS011;49531;-34.520;150.798;2024-01-25T04:51:30;17.77;;;3.40;;
63394;SDS011;49531;-34.520;150.798;2024-01-25T04:53:57;19.17;;;3.53;;
63394;SDS011;49531;-34.520;150.798;2024-01-25T04:56:24;17.30;;;3.35;;
63394;SDS011;49531;-34.520;150.798;2024-01-25T04:58:51;15.30;;;3.50;;
63394;SDS011;49531;-34.520;150.798;2024-01-25T05:01:18;16.23;;;3.15;;
63394;SDS011;49531;-34.520;150.798;2024-01-25T05:03:46;14.57;;;3.10;;
63394;SDS011;49531;-34.520;150.798;2024-01-25T05:06:13;14.50;;;3.17;;
63394;SDS011;49531;-34.520;150.798;2024-01-25T05:08:41;16.42;;;3.17;;
63394;SDS011;49531;-34.520;150.798;2024-01-25T05:11:09;18.77;;;3.55;;
63394;SDS011;49531;-34.520;150.798;2024-01-25T05:13:36;15.45;;;3.03;;
63394;SDS011;49531;-34.520;150.798;2024-01-25T05:16:03;13.90;;;3.05;;
63394;SDS011;49531;-34.520;150.798;2024-01-25T05:18:31;13.25;;;3.05;;
63394;SDS011;49531;-34.520;150.798;2024-01-25T05:20:58;11.48;;;2.83;;
63394;SDS011;49531;-34.520;150.798;2024-01-25T05:23:25;11.32;;;2.90;;
63394;SDS011;49531;-34.520;150.798;2024-01-25T05:25:52;15.02;;;3.08;;
63394;SDS011;49531;-34.520;150.798;2024-01-25T05:28:19;12.60;;;3.05;;
63394;SDS011;49531;-34.520;150.798;2024-01-25T05:30:46;9.98;;;2.78;;
63394;SDS011;49531;-34.520;150.798;2024-01-25T05:33:14;11.95;;;2.42;;
63394;SDS011;49531;-34.520;150.798;2024-01-25T05:35:41;14.02;;;3.15;;
63394;SDS011;49531;-34.520;150.798;2024-01-25T05:38:09;14.45;;;2.85;;
63394;SDS011;49531;-34.520;150.798;2024-01-25T05:40:36;18.80;;;3.90;;
63394;SDS011;49531;-34.520;150.798;2024-01-25T05:43:03;21.23;;;4.00;;
63394;SDS011;49531;-34.520;150.798;2024-01-25T05:45:30;16.70;;;3.55;;
63394;SDS011;49531;-34.520;150.798;2024-01-25T05:47:57;12.90;;;3.03;;
63394;SDS011;49531;-34.520;150.798;2024-01-25T05:50:24;16.27;;;3.55;;
63394;SDS011;49531;-34.520;150.798;2024-01-25T05:52:51;18.92;;;3.33;;
63394;SDS011;49531;-34.520;150.798;2024-01-25T05:55:18;22.48;;;4.05;;
63394;SDS011;49531;-34.520;150.798;2024-01-25T05:57:46;23.45;;;4.00;;
63394;SDS011;49531;-34.520;150.798;2024-01-25T06:00:13;16.48;;;3.88;;
63394;SDS011;49531;-34.520;150.798;2024-01-25T06:02:41;21.63;;;3.88;;
63394;SDS011;49531;-34.520;150.798;2024-01-25T06:05:09;23.50;;;4.40;;
63394;SDS011;49531;-34.520;150.798;2024-01-25T06:07:36;20.48;;;4.28;;
63394;SDS011;49531;-34.520;150.798;2024-01-25T06:10:03;14.15;;;3.72;;
63394;SDS011;49531;-34.520;150.798;2024-01-25T06:12:30;18.45;;;4.38;;
63394;SDS011;49531;-34.520;150.798;2024-01-25T06:14:57;18.80;;;4.22;;
63394;SDS011;49531;-34.520;150.798;2024-01-25T06:17:24;22.75;;;4.95;;
63394;SDS011;49531;-34.520;150.798;2024-01-25T06:19:52;22.50;;;4.75;;
63394;SDS011;49531;-34.520;150.798;2024-01-25T06:22:19;16.42;;;4.50;;
63394;SDS011;49531;-34.520;150.798;2024-01-25T06:24:46;21.90;;;4.60;;
63394;SDS011;49531;-34.520;150.798;2024-01-25T06:27:13;21.90;;;4.20;;
63394;SDS011;49531;-34.520;150.798;2024-01-25T06:29:40;21.80;;;4.63;;
63394;SDS011;49531;-34.520;150.798;2024-01-25T06:32:07;20.88;;;4.05;;
63394;SDS011;49531;-34.520;150.798;2024-01-25T06:34:34;22.58;;;4.43;;
63394;SDS011;49531;-34.520;150.798;2024-01-25T06:37:01;19.42;;;4.53;;
63394;SDS011;49531;-34.520;150.798;2024-01-25T06:39:28;16.20;;;4.13;;
63394;SDS011;49531;-34.520;150.798;2024-01-25T06:41:55;22.25;;;4.15;;
63394;SDS011;49531;-34.520;150.798;2024-01-25T06:44:22;21.63;;;4.35;;
63394;SDS011;49531;-34.520;150.798;2024-01-25T06:46:49;21.95;;;4.15;;
63394;SDS011;49531;-34.520;150.798;2024-01-25T06:49:16;23.08;;;4.45;;
63394;SDS011;49531;-34.520;150.798;2024-01-25T06:51:43;21.63;;;4.43;;
63394;SDS011;49531;-34.520;150.798;2024-01-25T06:54:10;19.98;;;4.40;;
63394;SDS011;49531;-34.520;150.798;2024-01-25T06:56:38;25.38;;;4.90;;
63394;SDS011;49531;-34.520;150.798;2024-01-25T06:59:05;16.80;;;3.95;;
63394;SDS011;49531;-34.520;150.798;2024-01-25T07:01:32;18.92;;;4.15;;
63394;SDS011;49531;-34.520;150.798;2024-01-25T07:03:59;18.98;;;4.53;;
63394;SDS011;49531;-34.520;150.798;2024-01-25T07:06:26;19.75;;;4.28;;
63394;SDS011;49531;-34.520;150.798;2024-01-25T07:08:54;16.45;;;4.10;;
63394;SDS011;49531;-34.520;150.798;2024-01-25T07:11:21;16.33;;;3.97;;
63394;SDS011;49531;-34.520;150.798;2024-01-25T07:13:50;17.98;;;3.70;;
63394;SDS011;49531;-34.520;150.798;2024-01-25T07:16:18;13.75;;;3.72;;
63394;SDS011;49531;-34.520;150.798;2024-01-25T07:18:45;22.95;;;4.45;;
63394;SDS011;49531;-34.520;150.798;2024-01-25T07:21:12;17.27;;;4.07;;
63394;SDS011;49531;-34.520;150.798;2024-01-25T07:23:39;19.27;;;3.97;;
63394;SDS011;49531;-34.520;150.798;2024-01-25T07:26:06;15.70;;;3.78;;
63394;SDS011;49531;-34.520;150.798;2024-01-25T07:28:33;22.02;;;4.18;;
63394;SDS011;49531;-34.520;150.798;2024-01-25T07:31:00;19.95;;;3.72;;
63394;SDS011;49531;-34.520;150.798;2024-01-25T07:33:27;18.13;;;3.92;;
63394;SDS011;49531;-34.520;150.798;2024-01-25T07:35:54;18.45;;;3.58;;
63394;SDS011;49531;-34.520;150.798;2024-01-25T07:38:23;18.67;;;3.92;;
63394;SDS011;49531;-34.520;150.798;2024-01-25T07:40:51;18.63;;;4.15;;
63394;SDS011;49531;-34.520;150.798;2024-01-25T07:43:18;13.38;;;3.63;;
63394;SDS011;49531;-34.520;150.798;2024-01-25T07:45:45;18.58;;;4.05;;
63394;SDS011;49531;-34.520;150.798;2024-01-25T07:48:12;18.15;;;3.70;;
63394;SDS011;49531;-34.520;150.798;2024-01-25T07:50:39;19.08;;;3.85;;
63394;SDS011;49531;-34.520;150.798;2024-01-25T07:53:06;16.70;;;3.97;;
63394;SDS011;49531;-34.520;150.798;2024-01-25T07:55:33;14.77;;;3.35;;
63394;SDS011;49531;-34.520;150.798;2024-01-25T07:58:00;15.43;;;3.47;;
63394;SDS011;49531;-34.520;150.798;2024-01-25T08:00:27;12.30;;;3.33;;
63394;SDS011;49531;-34.520;150.798;2024-01-25T08:02:55;12.98;;;3.53;;
63394;SDS011;49531;-34.520;150.798;2024-01-25T08:05:22;14.23;;;3.58;;
63394;SDS011;49531;-34.520;150.798;2024-01-25T08:07:49;15.07;;;3.55;;
63394;SDS011;49531;-34.520;150.798;2024-01-25T08:10:16;16.23;;;3.28;;
63394;SDS011;49531;-34.520;150.798;2024-01-25T08:12:43;13.70;;;3.33;;
63394;SDS011;49531;-34.520;150.798;2024-01-25T08:15:13;8.18;;;2.95;;
63394;SDS011;49531;-34.520;150.798;2024-01-25T08:17:40;11.73;;;3.10;;
63394;SDS011;49531;-34.520;150.798;2024-01-25T08:20:08;10.68;;;2.75;;
63394;SDS011;49531;-34.520;150.798;2024-01-25T08:22:38;13.25;;;2.95;;
63394;SDS011;49531;-34.520;150.798;2024-01-25T08:25:07;13.57;;;3.15;;
63394;SDS011;49531;-34.520;150.798;2024-01-25T08:27:35;9.10;;;3.00;;
63394;SDS011;49531;-34.520;150.798;2024-01-25T08:30:02;9.18;;;2.88;;
63394;SDS011;49531;-34.520;150.798;2024-01-25T08:32:30;12.70;;;3.38;;
63394;SDS011;49531;-34.520;150.798;2024-01-25T08:34:57;7.57;;;2.70;;
63394;SDS011;49531;-34.520;150.798;2024-01-25T08:37:24;11.07;;;2.97;;
63394;SDS011;49531;-34.520;150.798;2024-01-25T08:39:51;10.80;;;3.20;;
63394;SDS011;49531;-34.520;150.798;2024-01-25T08:42:18;10.52;;;2.70;;
63394;SDS011;49531;-34.520;150.798;2024-01-25T08:44:46;14.52;;;4.28;;
63394;SDS011;49531;-34.520;150.798;2024-01-25T08:47:19;11.02;;;3.13;;
63394;SDS011;49531;-34.520;150.798;2024-01-25T08:49:46;10.32;;;2.90;;
63394;SDS011;49531;-34.520;150.798;2024-01-25T08:52:13;12.45;;;2.88;;
63394;SDS011;49531;-34.520;150.798;2024-01-25T08:54:41;12.70;;;3.22;;
63394;SDS011;49531;-34.520;150.798;2024-01-25T08:57:08;10.95;;;3.13;;
63394;SDS011;49531;-34.520;150.798;2024-01-25T08:59:35;11.80;;;2.83;;
63394;SDS011;49531;-34.520;150.798;2024-01-25T09:02:05;13.75;;;3.40;;
63394;SDS011;49531;-34.520;150.798;2024-01-25T09:04:32;10.50;;;3.20;;
63394;SDS011;49531;-34.520;150.798;2024-01-25T09:07:00;10.23;;;3.08;;
63394;SDS011;49531;-34.520;150.798;2024-01-25T09:09:27;12.32;;;3.22;;
63394;SDS011;49531;-34.520;150.798;2024-01-25T09:11:54;11.45;;;3.13;;
63394;SDS011;49531;-34.520;150.798;2024-01-25T09:14:21;8.88;;;2.60;;
63394;SDS011;49531;-34.520;150.798;2024-01-25T09:16:49;11.55;;;3.28;;
63394;SDS011;49531;-34.520;150.798;2024-01-25T09:19:16;15.18;;;3.70;;
63394;SDS011;49531;-34.520;150.798;2024-01-25T09:21:43;17.30;;;3.30;;
63394;SDS011;49531;-34.520;150.798;2024-01-25T09:24:10;16.40;;;3.85;;
63394;SDS011;49531;-34.520;150.798;2024-01-25T09:26:37;12.38;;;3.33;;
63394;SDS011;49531;-34.520;150.798;2024-01-25T09:29:04;12.13;;;3.13;;
63394;SDS011;49531;-34.520;150.798;2024-01-25T09:31:31;12.80;;;3.00;;
63394;SDS011;49531;-34.520;150.798;2024-01-25T09:33:58;11.85;;;3.30;;
63394;SDS011;49531;-34.520;150.798;2024-01-25T09:36:25;11.63;;;3.03;;
63394;SDS011;49531;-34.520;150.798;2024-01-25T09:38:52;14.02;;;3.42;;
63394;SDS011;49531;-34.520;150.798;2024-01-25T09:41:20;9.63;;;2.95;;
63394;SDS011;49531;-34.520;150.798;2024-01-25T09:43:47;14.23;;;3.22;;
63394;SDS011;49531;-34.520;150.798;2024-01-25T09:46:14;11.38;;;3.40;;
63394;SDS011;49531;-34.520;150.798;2024-01-25T09:48:45;13.15;;;3.38;;
63394;SDS011;49531;-34.520;150.798;2024-01-25T09:51:13;13.13;;;3.55;;
63394;SDS011;49531;-34.520;150.798;2024-01-25T09:53:40;17.85;;;3.38;;
63394;SDS011;49531;-34.520;150.798;2024-01-25T09:56:11;12.65;;;3.28;;
63394;SDS011;49531;-34.520;150.798;2024-01-25T09:58:40;13.52;;;3.40;;
63394;SDS011;49531;-34.520;150.798;2024-01-25T10:01:08;10.63;;;3.25;;
63394;SDS011;49531;-34.520;150.798;2024-01-25T10:03:46;12.88;;;3.15;;
63394;SDS011;49531;-34.520;150.798;2024-01-25T10:06:14;10.70;;;3.00;;
63394;SDS011;49531;-34.520;150.798;2024-01-25T10:08:42;9.55;;;3.13;;
63394;SDS011;49531;-34.520;150.798;2024-01-25T10:11:10;9.50;;;3.20;;
63394;SDS011;49531;-34.520;150.798;2024-01-25T10:16:19;9.75;;;2.92;;
63394;SDS011;49531;-34.520;150.798;2024-01-25T10:18:47;9.40;;;3.00;;
63394;SDS011;49531;-34.520;150.798;2024-01-25T10:21:15;13.10;;;3.28;;
63394;SDS011;49531;-34.520;150.798;2024-01-25T10:23:45;12.88;;;3.50;;
63394;SDS011;49531;-34.520;150.798;2024-01-25T10:26:17;9.65;;;2.95;;
63394;SDS011;49531;-34.520;150.798;2024-01-25T10:28:54;11.95;;;3.35;;
63394;SDS011;49531;-34.520;150.798;2024-01-25T10:31:24;10.23;;;3.03;;
63394;SDS011;49531;-34.520;150.798;2024-01-25T10:33:52;7.82;;;2.90;;
63394;SDS011;49531;-34.520;150.798;2024-01-25T10:36:20;8.10;;;2.83;;
63394;SDS011;49531;-34.520;150.798;2024-01-25T10:38:49;11.85;;;3.17;;
63394;SDS011;49531;-34.520;150.798;2024-01-25T10:41:16;10.85;;;2.95;;
63394;SDS011;49531;-34.520;150.798;2024-01-25T10:43:45;11.77;;;3.28;;
63394;SDS011;49531;-34.520;150.798;2024-01-25T10:46:12;9.45;;;2.88;;
63394;SDS011;49531;-34.520;150.798;2024-01-25T10:48:40;11.80;;;2.90;;
63394;SDS011;49531;-34.520;150.798;2024-01-25T10:51:08;8.95;;;3.25;;
63394;SDS011;49531;-34.520;150.798;2024-01-25T10:53:36;13.52;;;3.40;;
63394;SDS011;49531;-34.520;150.798;2024-01-25T10:56:04;8.43;;;2.70;;
63394;SDS011;49531;-34.520;150.798;2024-01-25T10:58:32;7.90;;;2.78;;
63394;SDS011;49531;-34.520;150.798;2024-01-25T11:01:01;11.60;;;3.13;;
63394;SDS011;49531;-34.520;150.798;2024-01-25T11:03:39;8.55;;;2.95;;
63394;SDS011;49531;-34.520;150.798;2024-01-25T11:06:13;9.55;;;2.75;;
63394;SDS011;49531;-34.520;150.798;2024-01-25T11:08:41;10.20;;;2.95;;
63394;SDS011;49531;-34.520;150.798;2024-01-25T11:11:09;8.68;;;2.70;;
63394;SDS011;49531;-34.520;150.798;2024-01-25T11:13:39;16.33;;;3.03;;
63394;SDS011;49531;-34.520;150.798;2024-01-25T11:16:14;10.88;;;3.08;;
63394;SDS011;49531;-34.520;150.798;2024-01-25T11:18:49;7.88;;;2.75;;
63394;SDS011;49531;-34.520;150.798;2024-01-25T11:21:27;12.63;;;2.95;;
63394;SDS011;49531;-34.520;150.798;2024-01-25T11:23:59;8.52;;;2.90;;
63394;SDS011;49531;-34.520;150.798;2024-01-25T11:26:27;8.77;;;2.70;;
63394;SDS011;49531;-34.520;150.798;2024-01-25T11:28:54;9.75;;;3.28;;
63394;SDS011;49531;-34.520;150.798;2024-01-25T11:31:22;8.07;;;2.85;;
63394;SDS011;49531;-34.520;150.798;2024-01-25T11:33:50;8.30;;;2.70;;
63394;SDS011;49531;-34.520;150.798;2024-01-25T11:36:19;12.93;;;3.13;;
63394;SDS011;49531;-34.520;150.798;2024-01-25T11:38:48;9.07;;;2.97;;
63394;SDS011;49531;-34.520;150.798;2024-01-25T11:41:15;7.75;;;3.05;;
63394;SDS011;49531;-34.520;150.798;2024-01-25T11:43:42;8.13;;;2.72;;
63394;SDS011;49531;-34.520;150.798;2024-01-25T11:46:09;8.95;;;2.90;;
63394;SDS011;49531;-34.520;150.798;2024-01-25T11:49:00;10.73;;;3.03;;
63394;SDS011;49531;-34.520;150.798;2024-01-25T11:51:28;8.80;;;2.90;;
63394;SDS011;49531;-34.520;150.798;2024-01-25T11:53:55;10.02;;;3.00;;
63394;SDS011;49531;-34.520;150.798;2024-01-25T11:56:24;7.85;;;2.90;;
63394;SDS011;49531;-34.520;150.798;2024-01-25T11:58:54;12.77;;;3.20;;
63394;SDS011;49531;-34.520;150.798;2024-01-25T12:01:22;8.80;;;2.78;;
63394;SDS011;49531;-34.520;150.798;2024-01-25T12:03:51;11.85;;;3.42;;
63394;SDS011;49531;-34.520;150.798;2024-01-25T12:06:19;10.40;;;3.22;;
63394;SDS011;49531;-34.520;150.798;2024-01-25T12:08:46;11.25;;;3.10;;
63394;SDS011;49531;-34.520;150.798;2024-01-25T12:11:17;9.27;;;2.78;;
63394;SDS011;49531;-34.520;150.798;2024-01-25T12:13:44;8.13;;;2.90;;
63394;SDS011;49531;-34.520;150.798;2024-01-25T12:16:12;10.48;;;3.20;;
63394;SDS011;49531;-34.520;150.798;2024-01-25T12:18:40;10.98;;;3.40;;
63394;SDS011;49531;-34.520;150.798;2024-01-25T12:21:09;10.57;;;2.92;;
63394;SDS011;49531;-34.520;150.798;2024-01-25T12:23:39;9.40;;;2.72;;
63394;SDS011;49531;-34.520;150.798;2024-01-25T12:26:09;9.35;;;2.90;;
63394;SDS011;49531;-34.520;150.798;2024-01-25T12:28:37;11.40;;;3.28;;
63394;SDS011;49531;-34.520;150.798;2024-01-25T12:31:04;12.57;;;3.17;;
63394;SDS011;49531;-34.520;150.798;2024-01-25T12:33:33;9.90;;;2.90;;
63394;SDS011;49531;-34.520;150.798;2024-01-25T12:36:03;9.13;;;2.65;;
63394;SDS011;49531;-34.520;150.798;2024-01-25T12:38:31;11.60;;;3.10;;
63394;SDS011;49531;-34.520;150.798;2024-01-25T12:41:00;10.75;;;3.13;;
63394;SDS011;49531;-34.520;150.798;2024-01-25T12:43:28;10.15;;;3.03;;
63394;SDS011;49531;-34.520;150.798;2024-01-25T12:45:56;11.23;;;3.03;;
63394;SDS011;49531;-34.520;150.798;2024-01-25T12:48:23;10.30;;;2.90;;
63394;SDS011;49531;-34.520;150.798;2024-01-25T12:50:50;10.02;;;3.28;;
63394;SDS011;49531;-34.520;150.798;2024-01-25T12:53:17;7.95;;;3.00;;
63394;SDS011;49531;-34.520;150.798;2024-01-25T12:55:44;8.88;;;2.85;;
63394;SDS011;49531;-34.520;150.798;2024-01-25T12:58:11;10.50;;;3.03;;
63394;SDS011;49531;-34.520;150.798;2024-01-25T13:00:38;7.03;;;2.63;;
63394;SDS011;49531;-34.520;150.798;2024-01-25T13:03:05;9.25;;;3.05;;
63394;SDS011;49531;-34.520;150.798;2024-01-25T13:05:33;11.73;;;3.20;;
63394;SDS011;49531;-34.520;150.798;2024-01-25T13:08:00;9.82;;;3.00;;
63394;SDS011;49531;-34.520;150.798;2024-01-25T13:10:28;12.05;;;2.85;;
63394;SDS011;49531;-34.520;150.798;2024-01-25T13:12:56;9.10;;;2.97;;
63394;SDS011;49531;-34.520;150.798;2024-01-25T13:15:26;10.18;;;2.80;;
63394;SDS011;49531;-34.520;150.798;2024-01-25T13:17:56;10.65;;;3.10;;
63394;SDS011;49531;-34.520;150.798;2024-01-25T13:20:23;9.23;;;2.92;;
63394;SDS011;49531;-34.520;150.798;2024-01-25T13:22:50;9.45;;;2.92;;
63394;SDS011;49531;-34.520;150.798;2024-01-25T13:25:17;7.00;;;2.90;;
63394;SDS011;49531;-34.520;150.798;2024-01-25T13:27:44;5.60;;;2.83;;
63394;SDS011;49531;-34.520;150.798;2024-01-25T13:30:11;5.45;;;2.60;;
63394;SDS011;49531;-34.520;150.798;2024-01-25T13:32:39;8.30;;;2.63;;
63394;SDS011;49531;-34.520;150.798;2024-01-25T13:35:07;9.73;;;3.00;;
63394;SDS011;49531;-34.520;150.798;2024-01-25T13:37:34;12.52;;;2.92;;
63394;SDS011;49531;-34.520;150.798;2024-01-25T13:40:01;9.27;;;2.85;;
63394;SDS011;49531;-34.520;150.798;2024-01-25T13:42:29;9.98;;;2.83;;
63394;SDS011;49531;-34.520;150.798;2024-01-25T13:44:56;14.75;;;3.55;;
63394;SDS011;49531;-34.520;150.798;2024-01-25T13:47:23;6.25;;;2.70;;
63394;SDS011;49531;-34.520;150.798;2024-01-25T13:49:51;6.97;;;2.58;;
63394;SDS011;49531;-34.520;150.798;2024-01-25T13:52:18;12.60;;;3.15;;
63394;SDS011;49531;-34.520;150.798;2024-01-25T13:54:46;7.00;;;2.53;;
63394;SDS011;49531;-34.520;150.798;2024-01-25T13:57:17;7.18;;;2.67;;
63394;SDS011;49531;-34.520;150.798;2024-01-25T13:59:49;9.13;;;3.07;;
63394;SDS011;49531;-34.520;150.798;2024-01-25T14:02:16;6.43;;;2.53;;
63394;SDS011;49531;-34.520;150.798;2024-01-25T14:04:43;6.18;;;2.80;;
63394;SDS011;49531;-34.520;150.798;2024-01-25T14:07:11;7.55;;;2.70;;
63394;SDS011;49531;-34.520;150.798;2024-01-25T14:09:39;10.10;;;2.88;;